Time;durP1;ratioP1;P1;durP2;ratioP2;P2;SDS_P1;SDS_P2;PMS_P1;PMS_P2;Temp;Humidity;BMP_temperature;BMP_pressure;BME280_temperature;BME280_humidity;BME280_pressure;Samples;Min_cycle;Max_cycle;Signal;HPM_P1;HPM_P2
2023/08/15 02:15:25;;;;;;;8.45;2.05;;;19.80;70.40;;;;;;4839790;29;20215;-70
2023/08/15 02:41:51;;;;;;;3.45;1.77;;;19.80;70.00;;;;;;4870275;29;20331;-71
2023/08/15 02:44:19;;;;;;;3.88;1.48;;;19.80;70.00;;;;;;4891518;29;20296;-70
2023/08/15 02:46:59;;;;;;;;;;;;;;;;;;;;;
2023/08/15 02:56:22;;;;;;;6.25;2.05;;;19.80;69.60;;;;;;4970639;28;20289;-70
2023/08/15 03:26:33;;;;;;;;;;;;;;;;;;;;;
2023/08/15 05:08:30;;;;;;;2.95;1.55;;;19.50;67.50;;;;;;4840169;29;20536;-71
2023/08/15 05:11:01;;;;;;;3.05;1.45;;;19.50;67.50;;;;;;4840125;29;20284;-61
2023/08/15 08:58:33;;;;;;;4.55;1.58;;;19.40;66.30;;;;;;5093500;28;20541;-69
2023/08/15 15:14:57;;;;;;;1.95;1.20;;;20.20;61.90;;;;;;4990363;28;20213;-68
2023/08/15 15:17:25;;;;;;;3.90;1.38;;;20.20;62.00;;;;;;4991791;28;20229;-68
2023/08/15 15:19:52;;;;;;;2.08;1.08;;;20.20;62.00;;;;;;4990297;28;20656;-68
2023/08/15 15:22:20;;;;;;;4.93;1.30;;;20.30;62.10;;;;;;5028418;28;20211;-68
2023/08/15 15:24:47;;;;;;;4.18;1.52;;;20.20;61.90;;;;;;5049259;28;20263;-68
2023/08/15 15:27:14;;;;;;;2.85;1.40;;;20.30;62.10;;;;;;5072667;28;20627;-68
2023/08/15 15:29:41;;;;;;;3.50;1.38;;;20.30;62.00;;;;;;5096412;28;20189;-68
2023/08/15 15:32:09;;;;;;;2.00;1.02;;;20.30;62.00;;;;;;5096841;28;20707;-68
2023/08/15 15:34:36;;;;;;;3.28;1.40;;;20.30;62.00;;;;;;5096289;28;20221;-68
2023/08/15 15:37:03;;;;;;;5.10;1.48;;;20.40;62.10;;;;;;5096065;28;20707;-68
2023/08/15 15:39:30;;;;;;;2.97;1.23;;;20.40;62.20;;;;;;5087734;28;20277;-68
2023/08/15 15:41:57;;;;;;;2.63;1.85;;;20.40;62.20;;;;;;5096258;28;20214;-68
2023/08/15 15:44:25;;;;;;;2.67;1.30;;;20.40;62.20;;;;;;5095739;28;20262;-68
2023/08/15 15:46:52;;;;;;;4.00;1.60;;;20.40;62.10;;;;;;5095998;28;20237;-65
2023/08/15 15:49:20;;;;;;;3.80;1.10;;;20.40;62.10;;;;;;5095983;28;20289;-68
2023/08/15 15:51:47;;;;;;;3.25;1.27;;;20.40;62.10;;;;;;5095895;28;20300;-68
2023/08/15 15:54:14;;;;;;;3.65;1.30;;;20.40;62.00;;;;;;5095661;28;20273;-66
2023/08/15 15:56:41;;;;;;;4.07;1.20;;;20.50;62.00;;;;;;5095960;28;20216;-68
2023/08/15 15:59:08;;;;;;;2.70;1.65;;;20.50;62.00;;;;;;5095803;28;20190;-68
2023/08/15 16:01:35;;;;;;;1.88;1.40;;;20.50;61.90;;;;;;5095797;28;20217;-69
2023/08/15 16:04:02;;;;;;;4.53;1.40;;;20.50;62.60;;;;;;5095758;28;20193;-70
2023/08/15 16:06:30;;;;;;;2.95;1.20;;;20.50;61.90;;;;;;5095371;28;20230;-73
2023/08/15 16:08:57;;;;;;;6.30;1.15;;;20.50;61.70;;;;;;5095779;28;20193;-73
2023/08/15 16:11:24;;;;;;;3.80;1.48;;;20.50;61.70;;;;;;5095576;28;20218;-74
2023/08/15 16:13:52;;;;;;;8.35;1.45;;;20.60;61.70;;;;;;5095540;28;20277;-74
2023/08/15 16:16:19;;;;;;;2.70;1.35;;;20.60;61.60;;;;;;5095542;28;20295;-73
2023/08/15 16:18:46;;;;;;;2.65;1.20;;;20.60;61.60;;;;;;5095354;28;20186;-74
2023/08/15 16:34:18;;;;;;;3.70;1.42;;;20.60;61.40;;;;;;4992582;28;20273;-68
2023/08/15 16:46:19;;;;;;;4.70;1.60;;;20.70;61.30;;;;;;4992709;28;20308;-68
2023/08/15 16:55:56;;;;;;;4.43;1.50;;;20.70;61.60;;;;;;4849884;29;20215;-69
2023/08/15 16:58:24;;;;;;;3.58;1.38;;;20.70;61.70;;;;;;4859848;29;20757;-67
2023/08/15 18:49:24;;;;;;;5.20;1.60;;;20.70;62.70;;;;;;4952002;29;20215;-67
2023/08/15 18:51:51;;;;;;;3.60;1.40;;;20.70;62.80;;;;;;4951928;28;20233;-67
2023/08/15 18:54:24;;;;;;;8.38;1.90;;;20.60;62.80;;;;;;4952126;29;20231;-68
2023/08/15 19:03:32;;;;;;;6.05;1.90;;;20.60;63.00;;;;;;4961981;28;20249;-75
2023/08/15 19:06:00;;;;;;;5.68;1.88;;;20.50;63.00;;;;;;4990302;28;20279;-74
2023/08/15 19:08:27;;;;;;;5.70;2.10;;;20.50;64.00;;;;;;4990462;28;20197;-74
2023/08/15 19:10:54;;;;;;;7.25;1.98;;;20.50;63.20;;;;;;4990469;28;20201;-73
2023/08/15 19:13:22;;;;;;;8.00;2.30;;;20.50;63.40;;;;;;4990495;28;20229;-72
2023/08/15 19:15:49;;;;;;;7.90;2.10;;;20.50;63.60;;;;;;4990361;28;20212;-67
2023/08/15 19:18:16;;;;;;;7.50;2.42;;;20.40;63.60;;;;;;4990603;28;20680;-67
2023/08/15 19:20:43;;;;;;;5.22;1.80;;;20.40;63.70;;;;;;4990397;28;20209;-68
2023/08/15 19:23:11;;;;;;;4.72;1.90;;;20.40;63.70;;;;;;4990288;28;20206;-67
2023/08/15 19:25:39;;;;;;;7.22;2.30;;;20.40;63.90;;;;;;4994543;28;20190;-68
2023/08/15 19:28:06;;;;;;;4.53;1.83;;;20.40;63.80;;;;;;5029362;28;20211;-68
2023/08/15 19:30:35;;;;;;;3.67;2.00;;;20.30;63.80;;;;;;5029630;28;20196;-68
2023/08/15 19:33:02;;;;;;;6.28;2.38;;;20.30;63.90;;;;;;5029575;28;20320;-68
2023/08/15 19:35:29;;;;;;;7.72;2.00;;;20.30;63.90;;;;;;5029752;28;20203;-67
2023/08/15 19:37:56;;;;;;;5.07;1.90;;;20.30;64.00;;;;;;5084850;28;20228;-67
2023/08/15 19:40:24;;;;;;;4.68;1.60;;;20.30;64.20;;;;;;5091824;28;20194;-68
2023/08/15 19:42:51;;;;;;;4.55;1.92;;;20.30;64.20;;;;;;5092293;28;20306;-68
2023/08/15 19:45:31;;;;;;;;;;;;;;;;;;;;;
2023/08/15 20:35:25;;;;;;;8.27;3.63;;;20.10;65.10;;;;;;4933748;29;20208;-67
2023/08/15 20:37:53;;;;;;;7.20;2.60;;;20.10;65.10;;;;;;4935271;29;20220;-68
2023/08/15 21:23:18;;;;;;;7.80;2.85;;;20.00;65.40;;;;;;5058982;22;20263;-68
2023/08/15 21:25:45;;;;;;;6.43;2.00;;;20.10;65.50;;;;;;5053995;28;20838;-68
2023/08/15 22:22:35;;;;;;;4.57;2.28;;;19.90;65.80;;;;;;4857185;29;20363;-69
2023/08/15 22:25:02;;;;;;;7.70;2.78;;;19.90;65.90;;;;;;4862579;29;20203;-68
2023/08/15 22:27:30;;;;;;;5.10;2.10;;;19.90;65.90;;;;;;5056705;22;20266;-68
2023/08/15 22:30:15;;;;;;;5.05;2.13;;;19.90;65.80;;;;;;5052649;28;20199;-68
2023/08/15 22:32:53;;;;;;;2.92;1.80;;;19.90;65.90;;;;;;5052568;28;20220;-68
2023/08/15 23:06:00;;;;;;;;;;;;;;;;;;;;;
2023/08/15 23:09:12;;;;;;;3.85;1.90;;;19.80;65.60;;;;;;4775763;29;20241;-68
